Time;durP1;ratioP1;P1;durP2;ratioP2;P2;SDS_P1;SDS_P2;PMS_P1;PMS_P2;Temp;Humidity;BMP_temperature;BMP_pressure;BME280_temperature;BME280_humidity;BME280_pressure;Samples;Min_cycle;Max_cycle;Signal;HPM_P1;HPM_P2
2022/09/01 00:01:19;;;;;;;2.05;1.20;;;19.90;79.40;;;;;;4960012;28;20390;-67
2022/09/01 00:03:47;;;;;;;1.95;1.00;;;19.90;79.40;;;;;;4973258;28;20026;-67
2022/09/01 00:06:21;;;;;;;2.95;1.00;;;19.90;79.20;;;;;;4965783;28;20059;-67
2022/09/01 00:08:50;;;;;;;;;;;19.80;79.10;;;;;;4954814;28;20043;-67
2022/09/01 00:11:16;;;;;;;1.67;0.95;;;19.80;79.60;;;;;;4963676;28;19919;-67
2022/09/01 00:13:42;;;;;;;1.83;1.10;;;19.90;79.40;;;;;;4961070;28;20037;-67
2022/09/01 00:16:08;;;;;;;3.17;1.17;;;19.80;79.20;;;;;;4972464;28;20027;-67
2022/09/01 00:18:34;;;;;;;3.45;1.15;;;19.80;79.20;;;;;;4959804;28;20406;-67
2022/09/01 00:21:01;;;;;;;0.88;0.88;;;19.80;79.20;;;;;;4955402;28;20035;-67
2022/09/01 00:23:27;;;;;;;0.80;0.80;;;19.80;79.00;;;;;;4966235;28;20041;-67
2022/09/01 00:25:53;;;;;;;1.35;0.88;;;19.80;79.20;;;;;;4962644;28;20046;-67
2022/09/01 00:28:19;;;;;;;1.63;1.08;;;19.70;79.00;;;;;;4958881;28;20042;-67
2022/09/01 00:30:44;;;;;;;1.67;0.93;;;19.80;79.00;;;;;;4960194;28;20549;-67
2022/09/01 00:33:10;;;;;;;7.45;0.82;;;19.80;79.00;;;;;;4970914;28;20426;-67
2022/09/01 00:35:35;;;;;;;2.78;1.00;;;19.80;79.00;;;;;;4954906;28;20039;-67
2022/09/01 00:38:01;;;;;;;2.42;1.10;;;19.70;78.90;;;;;;4966255;28;20585;-67
2022/09/01 00:40:28;;;;;;;1.92;1.35;;;19.80;79.00;;;;;;4965140;28;20050;-67
2022/09/01 00:42:53;;;;;;;2.90;1.23;;;19.70;78.90;;;;;;4953847;28;20042;-67
2022/09/01 00:45:20;;;;;;;0.73;0.73;;;19.70;78.90;;;;;;4963429;28;20102;-67
2022/09/01 00:47:47;;;;;;;2.15;0.93;;;19.70;78.80;;;;;;4956658;28;20474;-67
2022/09/01 00:50:16;;;;;;;1.38;1.10;;;19.70;78.80;;;;;;4963169;28;20270;-67
2022/09/01 00:52:46;;;;;;;2.58;0.90;;;19.70;78.70;;;;;;4960395;28;20117;-67
2022/09/01 00:55:23;;;;;;;1.08;0.88;;;19.70;78.70;;;;;;4962983;28;20446;-67
2022/09/01 00:57:49;;;;;;;3.38;1.23;;;19.70;78.70;;;;;;4952477;28;20050;-67
2022/09/01 01:00:20;;;;;;;1.15;0.90;;;19.60;78.60;;;;;;4954407;28;20470;-67
2022/09/01 01:02:47;;;;;;;2.08;0.82;;;19.60;78.50;;;;;;4952941;28;20055;-67
2022/09/01 01:05:14;;;;;;;2.28;1.00;;;19.60;78.60;;;;;;4953610;28;20117;-67
2022/09/01 01:07:42;;;;;;;1.15;1.05;;;19.60;78.60;;;;;;4958360;28;20093;-67
2022/09/01 01:10:10;;;;;;;4.07;1.00;;;19.60;78.70;;;;;;4971385;28;20478;-67
2022/09/01 01:12:42;;;;;;;1.10;1.00;;;19.50;78.60;;;;;;4963760;28;20035;-67
2022/09/01 01:15:09;;;;;;;0.73;0.73;;;19.50;78.60;;;;;;4958004;28;20046;-67
2022/09/01 01:17:35;;;;;;;8.43;1.15;;;19.50;78.60;;;;;;4965988;28;20024;-67
2022/09/01 01:23:10;;;;;;;1.70;1.10;;;19.50;78.70;;;;;;4963825;28;20030;-67
2022/09/01 01:25:47;;;;;;;1.30;0.90;;;19.50;78.80;;;;;;4956253;28;20023;-67
2022/09/01 01:28:17;;;;;;;1.48;1.02;;;19.50;78.80;;;;;;4969876;28;20030;-67
2022/09/01 01:30:51;;;;;;;0.90;0.90;;;19.40;78.90;;;;;;4975779;28;20401;-67
2022/09/01 01:33:24;;;;;;;0.98;0.88;;;19.40;78.90;;;;;;4960478;28;20093;-68
2022/09/01 01:35:54;;;;;;;1.02;0.93;;;19.40;78.90;;;;;;4980283;28;20450;-67
2022/09/01 01:38:21;;;;;;;2.97;1.00;;;19.40;79.00;;;;;;4971263;28;20027;-67
2022/09/01 01:40:50;;;;;;;0.77;0.77;;;19.40;79.00;;;;;;4970126;28;20438;-67
2022/09/01 01:43:20;;;;;;;2.15;0.90;;;19.40;79.00;;;;;;4977255;28;20385;-67
2022/09/01 01:45:50;;;;;;;4.10;1.08;;;19.30;79.00;;;;;;4982621;28;20413;-67
2022/09/01 01:48:22;;;;;;;1.00;0.93;;;19.40;79.20;;;;;;4979925;28;20173;-67
2022/09/01 01:50:50;;;;;;;0.65;0.65;;;19.40;79.10;;;;;;4977147;28;20373;-67
2022/09/01 01:53:18;;;;;;;1.73;1.00;;;19.30;79.10;;;;;;4971140;28;20390;-67
2022/09/01 01:55:49;;;;;;;0.80;0.80;;;19.30;79.10;;;;;;4958926;28;20062;-67
2022/09/01 01:58:20;;;;;;;0.98;0.88;;;19.30;79.20;;;;;;4968439;28;20051;-67
2022/09/01 02:00:49;;;;;;;7.45;1.20;;;19.30;79.30;;;;;;4981622;28;20030;-67
2022/09/01 02:03:19;;;;;;;1.52;1.00;;;19.30;79.40;;;;;;4963697;28;20594;-67
2022/09/01 02:05:47;;;;;;;2.42;0.90;;;19.20;79.40;;;;;;4963751;28;20023;-67
2022/09/01 02:08:17;;;;;;;2.55;0.93;;;19.20;79.40;;;;;;4971581;28;20495;-67
2022/09/01 02:10:45;;;;;;;1.25;1.05;;;19.20;79.30;;;;;;4971897;28;20461;-67
2022/09/01 02:13:16;;;;;;;1.50;0.98;;;19.20;79.40;;;;;;4970617;28;20027;-67
2022/09/01 02:15:45;;;;;;;1.05;0.90;;;19.20;79.40;;;;;;4962197;28;20086;-67
2022/09/01 02:18:15;;;;;;;2.50;1.27;;;19.20;79.30;;;;;;4980691;28;20033;-67
2022/09/01 02:20:41;;;;;;;1.20;0.80;;;19.20;79.30;;;;;;4956942;28;20113;-67
2022/09/01 02:23:09;;;;;;;3.83;0.90;;;19.20;79.20;;;;;;4967052;28;20110;-67
2022/09/01 02:25:37;;;;;;;3.70;1.15;;;19.20;79.10;;;;;;4961005;28;20026;-67
2022/09/01 02:28:08;;;;;;;1.17;1.08;;;19.10;79.10;;;;;;4970742;28;20030;-67
2022/09/01 02:30:36;;;;;;;1.10;1.00;;;19.10;79.20;;;;;;4966320;28;20027;-67
2022/09/01 02:33:03;;;;;;;1.20;0.90;;;19.20;79.30;;;;;;4964477;28;20027;-67
2022/09/01 02:35:36;;;;;;;4.70;1.20;;;19.10;79.30;;;;;;4969574;28;20035;-67
2022/09/01 02:38:05;;;;;;;3.80;1.10;;;19.20;79.40;;;;;;4958635;28;20399;-67
2022/09/01 02:40:32;;;;;;;1.17;1.00;;;19.20;79.50;;;;;;4959548;28;20118;-67
2022/09/01 02:42:59;;;;;;;0.98;0.90;;;19.20;79.50;;;;;;4967063;28;20118;-67
2022/09/01 02:45:28;;;;;;;1.63;0.98;;;19.20;79.50;;;;;;4966326;28;20430;-67
2022/09/01 02:47:56;;;;;;;4.43;1.05;;;19.20;79.40;;;;;;4969751;28;20045;-67
2022/09/01 02:50:23;;;;;;;1.02;1.00;;;19.20;79.40;;;;;;4972081;28;20035;-67
2022/09/01 02:52:51;;;;;;;1.13;1.00;;;19.20;79.50;;;;;;4970764;28;20022;-67
2022/09/01 02:55:20;;;;;;;3.47;1.20;;;19.20;79.50;;;;;;4968146;28;20082;-67
2022/09/01 02:57:49;;;;;;;1.80;1.20;;;19.20;79.60;;;;;;4958930;28;20382;-67
2022/09/01 03:00:21;;;;;;;1.08;0.90;;;19.20;79.70;;;;;;4965094;28;20019;-67
2022/09/01 03:02:51;;;;;;;1.00;1.00;;;19.20;80.30;;;;;;4957640;28;20034;-67
2022/09/01 03:05:27;;;;;;;1.10;1.00;;;19.20;79.70;;;;;;4968766;28;20118;-67
2022/09/01 03:08:02;;;;;;;1.38;1.00;;;19.20;79.80;;;;;;4961783;28;20069;-67
2022/09/01 03:10:35;;;;;;;1.63;1.23;;;19.20;79.80;;;;;;4965936;28;20502;-67
2022/09/01 03:13:03;;;;;;;1.60;1.15;;;19.20;80.00;;;;;;4969225;28;20121;-67
2022/09/01 03:15:29;;;;;;;2.78;1.13;;;19.20;80.10;;;;;;4971880;28;20479;-67
2022/09/01 03:17:56;;;;;;;2.47;1.15;;;19.20;80.10;;;;;;4966467;28;20474;-67
2022/09/01 03:20:22;;;;;;;2.72;1.30;;;19.20;80.30;;;;;;4970832;28;20027;-67
2022/09/01 03:22:50;;;;;;;1.23;1.13;;;19.20;80.40;;;;;;4960613;28;20481;-67
2022/09/01 03:25:16;;;;;;;6.07;1.60;;;19.10;80.50;;;;;;4972134;28;20034;-67
2022/09/01 03:27:42;;;;;;;1.63;1.10;;;19.20;80.70;;;;;;4971167;28;20077;-67
2022/09/01 03:30:08;;;;;;;1.83;1.25;;;19.20;80.90;;;;;;4976546;28;20097;-67
2022/09/01 03:32:33;;;;;;;2.63;1.35;;;19.10;81.00;;;;;;4958816;28;20115;-67
2022/09/01 03:34:59;;;;;;;2.22;1.40;;;19.10;81.10;;;;;;4965792;28;20031;-67
2022/09/01 03:37:25;;;;;;;2.28;1.30;;;19.10;81.30;;;;;;4972561;28;20030;-67
2022/09/01 03:39:53;;;;;;;3.03;1.40;;;19.10;81.50;;;;;;4970482;28;20027;-67
2022/09/01 03:42:26;;;;;;;2.35;1.40;;;19.10;81.70;;;;;;4956595;28;20150;-67
2022/09/01 03:44:52;;;;;;;2.90;1.17;;;19.10;81.70;;;;;;4967512;28;20453;-67
2022/09/01 03:47:20;;;;;;;3.65;1.38;;;19.10;81.90;;;;;;4959165;28;20078;-67
2022/09/01 03:49:48;;;;;;;1.98;1.30;;;19.10;82.00;;;;;;4972358;28;20031;-67
2022/09/01 03:52:16;;;;;;;5.35;1.40;;;19.10;82.10;;;;;;4972357;28;20198;-67
2022/09/01 03:54:44;;;;;;;2.45;1.52;;;19.10;82.20;;;;;;4971234;28;20386;-67
2022/09/01 03:57:10;;;;;;;2.92;1.20;;;19.10;82.20;;;;;;4954722;28;20054;-67
2022/09/01 03:59:42;;;;;;;1.80;1.20;;;19.00;82.20;;;;;;4971799;28;20023;-67
2022/09/01 04:02:08;;;;;;;1.30;1.15;;;19.00;82.30;;;;;;4974090;28;20105;-67
2022/09/01 04:04:34;;;;;;;1.23;1.13;;;19.10;82.40;;;;;;4969537;28;20502;-67
2022/09/01 04:07:00;;;;;;;7.13;1.30;;;19.00;82.40;;;;;;4968534;28;20771;-67
2022/09/01 04:09:27;;;;;;;4.68;1.30;;;19.10;82.50;;;;;;4963305;28;20031;-67
2022/09/01 04:11:53;;;;;;;4.95;1.40;;;19.00;82.50;;;;;;4969102;28;20107;-67
2022/09/01 04:14:20;;;;;;;1.17;1.08;;;19.00;82.60;;;;;;4964224;28;20082;-67
2022/09/01 04:19:35;;;;;;;3.70;1.30;;;19.00;82.70;;;;;;4967648;28;20050;-67
2022/09/01 04:22:02;;;;;;;2.17;1.30;;;19.00;82.70;;;;;;4961568;28;20034;-67
2022/09/01 04:24:44;;;;;;;3.70;1.25;;;18.90;83.30;;;;;;4962091;28;20023;-67
2022/09/01 04:27:10;;;;;;;3.42;1.25;;;19.00;82.80;;;;;;4973410;28;20039;-67
2022/09/01 04:29:37;;;;;;;1.95;1.20;;;18.90;82.80;;;;;;4964356;28;20018;-67
2022/09/01 04:32:06;;;;;;;3.17;1.70;;;18.90;83.00;;;;;;4969998;28;20491;-67
2022/09/01 04:34:37;;;;;;;3.10;1.40;;;18.90;83.10;;;;;;4952969;28;20387;-67
2022/09/01 04:37:17;;;;;;;3.63;1.60;;;18.90;83.10;;;;;;4962909;28;20105;-67
2022/09/01 04:39:52;;;;;;;2.17;1.55;;;19.00;83.30;;;;;;4982126;28;20031;-67
2022/09/01 04:42:22;;;;;;;2.10;1.60;;;18.90;83.40;;;;;;4953246;28;20035;-67
2022/09/01 04:44:52;;;;;;;3.35;1.60;;;19.00;83.60;;;;;;4953209;28;20551;-67
2022/09/01 04:47:28;;;;;;;4.32;1.45;;;18.90;83.70;;;;;;4973123;28;20113;-67
2022/09/01 04:49:59;;;;;;;2.67;1.40;;;18.90;83.80;;;;;;4964140;28;20034;-67
2022/09/01 04:52:28;;;;;;;2.30;1.42;;;18.90;83.90;;;;;;4970474;28;20435;-67
2022/09/01 04:54:54;;;;;;;1.73;1.45;;;18.90;84.00;;;;;;4969949;28;20122;-67
2022/09/01 04:57:21;;;;;;;1.83;1.35;;;18.90;84.70;;;;;;4971563;28;20113;-67
2022/09/01 04:59:47;;;;;;;2.53;1.25;;;18.90;84.20;;;;;;4971305;28;20079;-67
2022/09/01 05:02:13;;;;;;;2.33;1.42;;;18.80;84.20;;;;;;4960020;28;20478;-66
2022/09/01 05:04:40;;;;;;;3.08;1.55;;;18.90;84.40;;;;;;4956596;28;20039;-67
2022/09/01 05:07:07;;;;;;;6.10;1.50;;;18.80;84.40;;;;;;4961635;28;20410;-66
2022/09/01 05:09:36;;;;;;;3.15;1.48;;;18.90;84.60;;;;;;4970885;28;20085;-67
2022/09/01 05:12:10;;;;;;;4.95;1.90;;;18.80;84.70;;;;;;4963451;28;20058;-67
2022/09/01 05:14:41;;;;;;;2.47;1.80;;;18.80;84.80;;;;;;4960897;28;20815;-66
2022/09/01 05:17:11;;;;;;;2.95;1.70;;;18.80;85.00;;;;;;4963795;28;20410;-67
2022/09/01 05:19:39;;;;;;;3.20;1.55;;;18.80;85.20;;;;;;4963539;28;20027;-66
2022/09/01 05:22:09;;;;;;;2.20;1.52;;;18.80;85.30;;;;;;4961270;28;20030;-66
2022/09/01 05:24:37;;;;;;;3.15;1.77;;;18.80;85.40;;;;;;4982862;28;20479;-66
2022/09/01 05:27:04;;;;;;;5.15;1.85;;;18.80;85.50;;;;;;4956953;28;20031;-67
2022/09/01 05:29:37;;;;;;;1.75;1.42;;;18.80;85.70;;;;;;4960948;28;20533;-66
2022/09/01 05:32:08;;;;;;;2.58;1.65;;;18.80;85.80;;;;;;4969132;28;20019;-67
2022/09/01 05:34:37;;;;;;;11.30;2.38;;;18.80;86.00;;;;;;4959897;28;20038;-66
2022/09/01 05:37:04;;;;;;;1.77;1.50;;;18.80;86.20;;;;;;4960426;28;20569;-66
2022/09/01 05:39:30;;;;;;;2.42;1.70;;;18.80;86.20;;;;;;4967720;28;20082;-66
2022/09/01 05:41:57;;;;;;;2.92;1.50;;;18.80;86.40;;;;;;4957127;28;20031;-67
2022/09/01 05:44:24;;;;;;;2.83;1.70;;;18.80;86.50;;;;;;4963424;28;20031;-67
2022/09/01 05:46:54;;;;;;;4.53;1.63;;;18.70;86.60;;;;;;4959079;28;20479;-66
2022/09/01 05:49:20;;;;;;;2.20;1.70;;;18.80;86.70;;;;;;4962989;28;20117;-67
2022/09/01 05:51:50;;;;;;;1.50;1.40;;;18.80;86.90;;;;;;4957626;28;20027;-66
2022/09/01 05:54:21;;;;;;;3.35;1.60;;;18.80;87.00;;;;;;4965485;28;20059;-67
2022/09/01 05:56:48;;;;;;;5.13;2.08;;;18.80;87.10;;;;;;4962894;28;20039;-67
2022/09/01 05:59:19;;;;;;;3.85;1.58;;;18.80;87.30;;;;;;4972625;28;20033;-66
2022/09/01 06:01:47;;;;;;;3.53;1.50;;;18.80;87.50;;;;;;4967302;28;20057;-66
2022/09/01 06:04:14;;;;;;;4.18;1.90;;;18.80;87.60;;;;;;4968555;28;20478;-66
2022/09/01 06:06:45;;;;;;;2.35;1.55;;;18.90;87.60;;;;;;4963493;28;20145;-67
2022/09/01 06:09:14;;;;;;;2.55;1.60;;;18.80;87.70;;;;;;4969209;28;20033;-66
2022/09/01 06:11:41;;;;;;;1.90;1.35;;;18.90;87.80;;;;;;4969620;28;20027;-66
2022/09/01 06:14:09;;;;;;;3.00;1.50;;;18.90;87.80;;;;;;4965639;28;20049;-66
2022/09/01 06:16:37;;;;;;;1.90;1.20;;;18.90;87.80;;;;;;4964001;28;20035;-66
2022/09/01 06:19:03;;;;;;;4.75;1.30;;;18.90;87.70;;;;;;4968919;28;20039;-66
2022/09/01 06:21:31;;;;;;;5.65;1.33;;;19.00;87.60;;;;;;4972867;28;20023;-67
2022/09/01 06:23:57;;;;;;;1.67;1.35;;;19.00;87.50;;;;;;4971407;28;20458;-67
2022/09/01 06:26:29;;;;;;;3.03;1.23;;;19.00;87.50;;;;;;4965713;28;20039;-67
2022/09/01 06:29:02;;;;;;;3.38;1.50;;;19.00;87.50;;;;;;4960328;28;20130;-67
2022/09/01 06:31:34;;;;;;;2.38;1.25;;;19.10;87.20;;;;;;4975039;28;20055;-67
2022/09/01 06:34:08;;;;;;;1.70;1.30;;;19.10;87.00;;;;;;4963704;28;20070;-67
2022/09/01 06:36:39;;;;;;;1.85;1.30;;;19.20;86.70;;;;;;4958793;28;20050;-67
2022/09/01 06:39:05;;;;;;;3.13;1.35;;;19.10;86.60;;;;;;4981822;28;20078;-67
2022/09/01 06:41:31;;;;;;;2.28;1.52;;;19.20;86.40;;;;;;4966494;28;20031;-67
2022/09/01 06:44:00;;;;;;;3.35;1.40;;;19.20;86.20;;;;;;4955185;28;20039;-67
2022/09/01 06:46:28;;;;;;;3.58;1.75;;;19.30;86.10;;;;;;4967234;28;20027;-67
2022/09/01 06:48:57;;;;;;;3.03;1.40;;;19.30;85.80;;;;;;4967464;28;20404;-67
2022/09/01 06:51:28;;;;;;;4.50;2.30;;;19.30;85.60;;;;;;4968872;28;21085;-67
2022/09/01 06:53:55;;;;;;;7.65;1.60;;;19.30;85.50;;;;;;4965049;28;20517;-67
2022/09/01 06:56:25;;;;;;;1.95;1.60;;;19.40;85.40;;;;;;4960027;28;20038;-67
2022/09/01 06:58:52;;;;;;;4.90;1.60;;;19.40;85.40;;;;;;4974535;28;20022;-67
2022/09/01 07:01:20;;;;;;;7.75;1.50;;;19.40;85.40;;;;;;4956271;28;20142;-67
2022/09/01 07:03:50;;;;;;;2.33;1.50;;;19.40;85.60;;;;;;4965619;28;20434;-67
2022/09/01 07:06:26;;;;;;;4.18;1.75;;;19.40;85.70;;;;;;4954458;28;20059;-67
2022/09/01 07:09:11;;;;;;;4.00;1.50;;;19.40;85.80;;;;;;4970603;28;20049;-67
2022/09/01 07:11:39;;;;;;;4.97;1.50;;;19.40;85.80;;;;;;4973702;28;20038;-67
2022/09/01 07:14:06;;;;;;;3.05;1.50;;;19.40;85.80;;;;;;4973008;28;20391;-67
2022/09/01 07:16:39;;;;;;;2.92;1.75;;;19.40;85.80;;;;;;4963892;28;20410;-67
2022/09/01 07:19:11;;;;;;;1.83;1.38;;;19.40;86.00;;;;;;4967274;28;20042;-67
2022/09/01 07:21:38;;;;;;;1.90;1.42;;;19.40;86.00;;;;;;4955011;28;20145;-67
2022/09/01 07:24:05;;;;;;;2.22;1.70;;;19.30;86.10;;;;;;4971607;28;20170;-67
2022/09/01 07:26:34;;;;;;;4.80;1.60;;;19.40;86.10;;;;;;4973941;28;20039;-67
2022/09/01 07:29:02;;;;;;;3.50;1.50;;;19.40;86.30;;;;;;4967493;28;20443;-67
2022/09/01 07:31:33;;;;;;;3.42;1.90;;;19.40;86.50;;;;;;4964837;28;20521;-67
2022/09/01 07:34:03;;;;;;;3.47;1.50;;;19.40;86.70;;;;;;4972392;28;20024;-67
2022/09/01 07:36:29;;;;;;;1.70;1.27;;;19.40;86.60;;;;;;4972674;28;20509;-67
2022/09/01 07:38:56;;;;;;;3.58;1.67;;;19.40;86.20;;;;;;4986058;28;20014;-67
2022/09/01 07:41:24;;;;;;;1.90;1.50;;;19.40;86.20;;;;;;4963353;28;20153;-67
2022/09/01 07:44:11;;;;;;;2.55;1.63;;;19.40;86.20;;;;;;4962688;28;20062;-67
2022/09/01 07:47:00;;;;;;;1.88;1.63;;;19.50;86.20;;;;;;4956899;28;20110;-67
2022/09/01 07:49:26;;;;;;;2.30;1.75;;;19.50;86.20;;;;;;4964874;28;20113;-67
2022/09/01 07:51:51;;;;;;;4.15;1.80;;;19.50;86.30;;;;;;4978471;28;20419;-67
2022/09/01 07:54:20;;;;;;;3.25;1.48;;;19.50;86.50;;;;;;4955197;28;20035;-67
2022/09/01 07:56:46;;;;;;;2.53;1.60;;;19.50;86.50;;;;;;4954143;28;20039;-67
2022/09/01 07:59:13;;;;;;;2.03;1.30;;;19.50;86.50;;;;;;4953494;28;20055;-67
2022/09/01 08:01:47;;;;;;;1.38;1.25;;;19.60;86.90;;;;;;4954606;28;20082;-67
2022/09/01 08:04:13;;;;;;;2.10;1.25;;;19.60;86.40;;;;;;4953773;28;20073;-67
2022/09/01 08:06:40;;;;;;;2.42;1.25;;;19.70;86.50;;;;;;4961400;28;20402;-67
2022/09/01 08:09:07;;;;;;;2.35;1.50;;;19.70;86.50;;;;;;4970639;28;20049;-67
2022/09/01 08:11:34;;;;;;;1.58;1.30;;;19.80;86.50;;;;;;4970550;28;20035;-67
2022/09/01 08:14:01;;;;;;;3.22;1.67;;;19.80;86.20;;;;;;4956913;28;20033;-67
2022/09/01 08:16:29;;;;;;;1.27;1.17;;;19.80;86.00;;;;;;4962709;28;20129;-67
2022/09/01 08:18:57;;;;;;;1.77;1.40;;;19.90;85.90;;;;;;4957746;28;20030;-67
2022/09/01 08:21:26;;;;;;;2.53;1.65;;;19.90;85.80;;;;;;4963070;28;20442;-67
2022/09/01 08:23:58;;;;;;;2.08;1.42;;;20.00;85.70;;;;;;4968701;28;20018;-67
2022/09/01 08:26:25;;;;;;;4.03;1.50;;;20.00;85.40;;;;;;4963482;28;20548;-67
2022/09/01 08:28:53;;;;;;;2.45;1.30;;;20.00;85.40;;;;;;4959719;28;20018;-67
2022/09/01 08:31:26;;;;;;;3.85;1.40;;;20.10;85.50;;;;;;4971238;28;20076;-68
2022/09/01 08:33:52;;;;;;;2.67;1.20;;;20.10;85.40;;;;;;4969966;28;20022;-67
2022/09/01 08:36:19;;;;;;;3.22;1.50;;;20.10;85.40;;;;;;4971629;28;20057;-67
2022/09/01 08:38:44;;;;;;;3.42;1.35;;;20.20;85.40;;;;;;4980706;28;20109;-68
2022/09/01 08:41:44;;;;;;;1.40;1.25;;;20.20;85.60;;;;;;4963147;28;20059;-67
2022/09/01 08:44:39;;;;;;;1.50;1.30;;;20.20;85.50;;;;;;4941735;28;20047;-67
2022/09/01 08:47:15;;;;;;;1.90;1.42;;;20.20;85.10;;;;;;4967045;28;20035;-67
2022/09/01 08:49:46;;;;;;;3.85;1.50;;;20.30;85.10;;;;;;4966804;28;20030;-67
2022/09/01 08:52:34;;;;;;;2.50;1.30;;;20.30;85.00;;;;;;4967399;28;20102;-67
2022/09/01 08:55:43;;;;;;;3.08;1.40;;;20.30;85.30;;;;;;4964613;28;20019;-67
2022/09/01 08:58:14;;;;;;;3.42;1.35;;;20.40;84.40;;;;;;4950786;28;20059;-67
2022/09/01 09:01:10;;;;;;;3.67;1.30;;;20.40;84.20;;;;;;4932187;28;20503;-67
2022/09/01 09:03:46;;;;;;;1.25;1.08;;;20.50;84.10;;;;;;4962203;28;20031;-67
2022/09/01 09:06:30;;;;;;;3.50;1.10;;;20.60;84.00;;;;;;4972323;28;20055;-69
2022/09/01 09:09:05;;;;;;;1.20;1.10;;;20.60;84.00;;;;;;4960469;28;20039;-67
2022/09/01 09:11:45;;;;;;;1.80;0.95;;;20.60;83.80;;;;;;4953896;28;20109;-70
2022/09/01 09:15:05;;;;;;;1.60;1.00;;;20.70;83.90;;;;;;4963755;28;20039;-70
2022/09/01 09:17:36;;;;;;;1.33;1.10;;;20.70;83.60;;;;;;4919960;29;20403;-70
2022/09/01 09:20:03;;;;;;;2.20;1.10;;;20.80;83.70;;;;;;4956121;28;20050;-69
2022/09/01 09:22:30;;;;;;;3.17;0.82;;;20.80;83.60;;;;;;4960181;28;20023;-70
2022/09/01 09:25:11;;;;;;;4.10;1.58;;;20.90;83.80;;;;;;4964815;28;20131;-70
2022/09/01 09:27:45;;;;;;;5.30;0.95;;;20.90;82.70;;;;;;4960632;28;20027;-70
2022/09/01 09:30:19;;;;;;;2.38;1.10;;;21.00;82.70;;;;;;4978606;28;20034;-70
2022/09/01 09:32:44;;;;;;;1.10;0.88;;;21.00;82.70;;;;;;4972180;28;20026;-70
2022/09/01 09:35:27;;;;;;;2.28;1.05;;;21.00;82.00;;;;;;4963081;28;20035;-70
2022/09/01 09:37:53;;;;;;;1.17;1.07;;;21.10;81.90;;;;;;4972997;28;20037;-70
2022/09/01 09:40:25;;;;;;;2.05;1.00;;;21.10;81.50;;;;;;4976953;28;20274;-70
2022/09/01 09:42:54;;;;;;;2.07;1.03;;;21.10;81.70;;;;;;4973511;28;20034;-70
2022/09/01 09:45:28;;;;;;;0.75;0.75;;;21.20;81.70;;;;;;4967343;28;20289;-70
2022/09/01 09:47:56;;;;;;;2.42;0.88;;;21.20;81.70;;;;;;4964493;28;20430;-70
2022/09/01 09:50:28;;;;;;;1.08;0.90;;;21.20;81.70;;;;;;4968360;28;20030;-71
2022/09/01 09:53:15;;;;;;;2.95;0.88;;;21.30;81.20;;;;;;4963744;28;20046;-70
2022/09/01 09:55:52;;;;;;;1.05;0.80;;;21.40;80.90;;;;;;4962313;28;20047;-69
2022/09/01 09:58:25;;;;;;;1.70;0.82;;;21.40;80.40;;;;;;4953669;28;20538;-70
2022/09/01 10:01:01;;;;;;;1.08;0.80;;;21.40;80.10;;;;;;4966256;28;20035;-70
2022/09/01 10:03:41;;;;;;;0.77;0.77;;;21.50;80.30;;;;;;4954642;28;20130;-71
2022/09/01 10:06:15;;;;;;;2.65;0.93;;;21.50;80.00;;;;;;4964698;28;20068;-70
2022/09/01 10:08:44;;;;;;;3.70;0.85;;;21.50;79.90;;;;;;4952605;28;20034;-70
2022/09/01 10:11:24;;;;;;;1.67;0.90;;;21.60;79.20;;;;;;4952960;28;20050;-70
2022/09/01 10:13:53;;;;;;;2.35;0.98;;;21.60;78.70;;;;;;4952510;28;20077;-70
2022/09/01 10:16:29;;;;;;;3.72;0.80;;;21.60;78.70;;;;;;4957548;28;20042;-70
2022/09/01 10:18:59;;;;;;;4.68;0.95;;;21.70;79.50;;;;;;4967458;28;20055;-70
2022/09/01 10:21:36;;;;;;;0.60;0.60;;;21.70;79.20;;;;;;4952523;28;20047;-70
2022/09/01 10:24:18;;;;;;;4.25;0.95;;;21.80;79.80;;;;;;4952299;28;20039;-70
2022/09/01 10:26:48;;;;;;;2.55;1.10;;;21.80;79.20;;;;;;4952692;28;20047;-70
2022/09/01 10:29:19;;;;;;;1.85;0.50;;;21.80;78.70;;;;;;4961595;28;20074;-70
2022/09/01 10:31:45;;;;;;;3.25;1.00;;;21.80;78.40;;;;;;4962681;28;20043;-70
2022/09/01 10:34:16;;;;;;;3.10;0.80;;;21.80;78.00;;;;;;4950989;28;20031;-70
2022/09/01 10:36:44;;;;;;;1.05;0.82;;;21.90;77.60;;;;;;4958551;28;20073;-71
2022/09/01 10:39:17;;;;;;;2.72;1.05;;;22.00;77.40;;;;;;4964209;28;20024;-70
2022/09/01 10:41:53;;;;;;;0.93;0.60;;;22.00;77.20;;;;;;4957534;28;20378;-71
2022/09/01 10:44:20;;;;;;;1.17;1.00;;;22.10;77.20;;;;;;4960834;28;20042;-69
2022/09/01 10:46:46;;;;;;;2.47;0.88;;;22.10;77.30;;;;;;4961126;28;20035;-70
2022/09/01 10:49:19;;;;;;;0.88;0.70;;;22.10;76.60;;;;;;4956944;28;20035;-70
2022/09/01 10:51:45;;;;;;;2.70;0.80;;;22.20;76.10;;;;;;4985332;28;20454;-70
2022/09/01 10:54:39;;;;;;;0.68;0.47;;;22.20;76.80;;;;;;4973710;28;20548;-70
2022/09/01 10:57:27;;;;;;;1.13;0.90;;;22.30;76.90;;;;;;4973353;28;20154;-70
2022/09/01 10:59:56;;;;;;;1.33;0.85;;;22.30;76.30;;;;;;4954458;28;20027;-70
2022/09/01 11:02:22;;;;;;;2.58;0.80;;;22.30;76.50;;;;;;4954137;28;20067;-70
2022/09/01 11:05:07;;;;;;;2.28;0.93;;;22.40;75.80;;;;;;4975131;28;20035;-70
2022/09/01 11:07:37;;;;;;;4.85;1.10;;;22.40;75.40;;;;;;4972605;28;20099;-71
2022/09/01 11:10:22;;;;;;;0.80;0.60;;;22.40;74.80;;;;;;4964692;28;20479;-70
2022/09/01 11:13:15;;;;;;;0.93;0.57;;;22.50;75.50;;;;;;4972232;28;20054;-71
2022/09/01 11:15:44;;;;;;;0.97;0.50;;;22.50;74.60;;;;;;4965534;28;20038;-71
2022/09/01 11:18:30;;;;;;;2.00;0.63;;;22.50;74.00;;;;;;4966010;28;20441;-71
2022/09/01 11:21:24;;;;;;;0.95;0.63;;;22.60;73.80;;;;;;4965328;28;20031;-71
2022/09/01 11:23:49;;;;;;;5.97;0.63;;;22.60;71.80;;;;;;4959477;28;20038;-71
2022/09/01 11:26:31;;;;;;;2.13;1.10;;;22.70;71.30;;;;;;4964826;28;20027;-71
2022/09/01 11:28:57;;;;;;;1.45;0.90;;;22.70;72.10;;;;;;4969478;28;20042;-71
2022/09/01 11:31:38;;;;;;;3.85;0.80;;;22.80;71.40;;;;;;4973059;28;20425;-71
2022/09/01 11:34:12;;;;;;;7.72;0.88;;;22.80;69.60;;;;;;4960310;28;20062;-70
2022/09/01 11:36:45;;;;;;;;;;;22.80;69.50;;;;;;4966179;28;20512;-71
2022/09/01 11:39:17;;;;;;;2.35;1.10;;;22.90;72.90;;;;;;4964345;28;19953;-70
2022/09/01 11:41:54;;;;;;;0.95;0.80;;;22.90;72.40;;;;;;4961826;28;20133;-70
2022/09/01 11:44:51;;;;;;;0.90;0.70;;;23.10;72.60;;;;;;4974130;28;20498;-70
2022/09/01 11:47:25;;;;;;;2.70;0.85;;;23.00;73.50;;;;;;4953621;28;20039;-69
2022/09/01 11:49:59;;;;;;;2.25;0.85;;;23.00;72.90;;;;;;4968505;28;20049;-70
2022/09/01 11:52:29;;;;;;;2.42;0.60;;;23.10;72.10;;;;;;4963926;28;20039;-69
2022/09/01 11:54:55;;;;;;;1.60;0.95;;;23.10;73.60;;;;;;4964018;28;20066;-69
2022/09/01 11:57:33;;;;;;;1.88;0.77;;;23.10;74.60;;;;;;4961970;28;20035;-69
2022/09/01 12:00:01;;;;;;;1.35;0.95;;;23.10;73.40;;;;;;4959457;28;20062;-68
2022/09/01 12:02:53;;;;;;;0.93;0.88;;;23.10;73.60;;;;;;4962576;28;20533;-69
2022/09/01 12:05:27;;;;;;;3.50;0.83;;;23.20;72.70;;;;;;4960837;28;20888;-69
2022/09/01 12:07:53;;;;;;;2.17;0.80;;;23.10;73.10;;;;;;4961934;28;20442;-68
2022/09/01 12:10:21;;;;;;;1.08;0.70;;;23.20;73.10;;;;;;4961864;28;20023;-69
2022/09/01 12:12:47;;;;;;;7.22;0.88;;;23.20;74.00;;;;;;4960101;28;20045;-69
2022/09/01 12:15:26;;;;;;;1.20;0.70;;;23.20;73.30;;;;;;4963608;28;20022;-69
2022/09/01 12:17:52;;;;;;;4.32;1.00;;;23.20;72.90;;;;;;4967046;28;20485;-69
2022/09/01 12:20:29;;;;;;;3.38;1.08;;;23.30;73.00;;;;;;4961661;28;20038;-69
2022/09/01 12:22:57;;;;;;;7.43;0.90;;;23.30;72.60;;;;;;4961375;28;20049;-70
2022/09/01 12:25:33;;;;;;;1.38;0.95;;;23.30;73.70;;;;;;4960535;28;20143;-70
2022/09/01 12:28:01;;;;;;;4.60;0.90;;;23.30;72.80;;;;;;4964351;28;20039;-70
2022/09/01 12:30:27;;;;;;;2.67;0.93;;;23.30;73.30;;;;;;4965878;28;20023;-70
2022/09/01 12:32:54;;;;;;;1.23;0.75;;;23.30;72.60;;;;;;4965004;28;20031;-69
2022/09/01 12:35:24;;;;;;;2.42;0.75;;;23.30;71.60;;;;;;4964616;28;20039;-70
2022/09/01 12:37:51;;;;;;;5.78;1.00;;;23.30;71.10;;;;;;4962246;28;20035;-70
2022/09/01 12:40:34;;;;;;;1.00;0.50;;;23.30;71.50;;;;;;4959920;28;20110;-70
2022/09/01 12:43:00;;;;;;;3.90;0.88;;;23.30;73.40;;;;;;4963953;28;20039;-69
2022/09/01 12:45:41;;;;;;;1.70;0.82;;;23.30;73.10;;;;;;4957471;28;20067;-70
2022/09/01 12:48:28;;;;;;;14.00;0.98;;;23.30;72.80;;;;;;4964423;28;20035;-69
2022/09/01 12:50:55;;;;;;;6.15;0.90;;;23.30;73.30;;;;;;4977947;28;20031;-69
2022/09/01 12:53:23;;;;;;;2.33;0.60;;;23.40;72.90;;;;;;4969175;28;20035;-69
2022/09/01 12:56:02;;;;;;;1.42;0.82;;;23.40;73.20;;;;;;4957227;28;20530;-69
2022/09/01 12:58:29;;;;;;;8.63;0.90;;;23.40;72.10;;;;;;4963139;28;20043;-69
2022/09/01 13:01:07;;;;;;;3.58;0.98;;;23.50;72.40;;;;;;4969564;28;20058;-71
2022/09/01 13:03:33;;;;;;;3.30;0.82;;;23.50;71.10;;;;;;4954193;28;20043;-71
2022/09/01 13:06:01;;;;;;;6.43;0.90;;;23.50;70.20;;;;;;4967063;28;20050;-73
2022/09/01 13:08:33;;;;;;;11.02;1.02;;;23.60;70.50;;;;;;4971249;28;20422;-71
2022/09/01 13:11:13;;;;;;;1.05;0.70;;;23.60;70.00;;;;;;4970901;28;20478;-70
2022/09/01 13:13:39;;;;;;;1.17;0.60;;;23.70;69.00;;;;;;4962026;28;20098;-69